Raisin City, California
Current Conditions -  °F | °C
As of 7:53 AM on Sunday 25 Jan 2015 (Local Time) from KFAT Reporting Station
Moderate Fog Moderate Fog  
Wind Chill: 40°   Ceiling: 200
Heat Index: 40°   Visibility: 0.12mi
Dew Point: 40°   Wind: 0mph
Humidity: 100%   Direction: NA
Pressure: 30.18"   Gusts: NA
Location:  36.6025°N, 119.898°W
Report Text: KFAT 251553Z 00000KT 1/8SM R29R/1200FT FG VV002 04/04 A3018 RMK AO2 SLP222 T00440044 $
Loading
Personal Weather Stations






























Interactive Weather Map New forecast layout! Learn more

10-Day Weather Forecast

Advertisements
Track Severe Weather on mobile